Time;durP1;ratioP1;P1;durP2;ratioP2;P2;SDS_P1;SDS_P2;PMS_P1;PMS_P2;Temp;Humidity;BMP_temperature;BMP_pressure;BME280_temperature;BME280_humidity;BME280_pressure;Samples;Min_cycle;Max_cycle;Signal;HPM_P1;HPM_P2
2021/04/24 00:01:16;;;;;;;9.45;5.38;;;;;;;6.07;47.97;98582.47;10228270;29;20047;-75
2021/04/24 00:06:36;;;;;;;8.90;5.00;;;;;;;6.01;47.18;98571.56;10240802;29;20051;-75
2021/04/24 00:11:57;;;;;;;8.10;5.28;;;;;;;5.98;47.53;98570.63;10227671;29;20047;-75
2021/04/24 00:17:17;;;;;;;11.73;5.78;;;;;;;5.94;47.92;98563.94;10241035;29;20109;-75
2021/04/24 00:22:38;;;;;;;9.73;5.32;;;;;;;5.91;47.89;98559.47;10227878;29;20539;-75
2021/04/24 00:27:58;;;;;;;8.98;4.72;;;;;;;5.86;47.95;98558.28;10254294;29;20043;-75
2021/04/24 00:33:19;;;;;;;12.57;5.30;;;;;;;5.85;48.42;98554.03;10240285;29;20470;-76
2021/04/24 00:38:39;;;;;;;9.75;4.68;;;;;;;5.84;48.17;98549.78;10240314;29;20498;-75
2021/04/24 00:44:00;;;;;;;9.05;4.90;;;;;;;5.82;48.19;98546.09;10240166;29;20050;-75
2021/04/24 00:49:20;;;;;;;9.63;5.38;;;;;;;5.75;48.32;98539.94;10239977;29;20047;-75
2021/04/24 00:54:41;;;;;;;9.88;5.60;;;;;;;5.70;48.59;98537.31;10239997;29;20058;-77
2021/04/24 01:00:04;;;;;;;9.82;5.57;;;;;;;5.63;48.79;98535.22;10253120;28;20050;-75
2021/04/24 01:05:33;;;;;;;10.95;5.45;;;;;;;5.58;49.01;98534.06;10239595;29;20045;-75
2021/04/24 01:10:53;;;;;;;11.30;6.45;;;;;;;5.55;48.81;98531.66;10239685;29;20043;-75
2021/04/24 01:16:14;;;;;;;12.73;5.97;;;;;;;5.52;49.21;98529.97;10229671;28;20094;-75
2021/04/24 01:21:34;;;;;;;11.55;5.63;;;;;;;5.50;49.20;98527.75;10247304;29;20094;-75
2021/04/24 01:26:55;;;;;;;9.80;5.10;;;;;;;5.46;49.64;98525.31;10247560;28;20493;-75
2021/04/24 01:32:16;;;;;;;9.02;5.00;;;;;;;5.43;49.25;98529.16;10233892;29;20043;-75
2021/04/24 01:37:36;;;;;;;9.70;5.70;;;;;;;5.40;49.40;98524.72;10246678;29;20402;-76
2021/04/24 01:42:57;;;;;;;13.52;6.05;;;;;;;5.36;49.51;98518.03;10246323;29;20047;-75
2021/04/24 01:48:17;;;;;;;10.25;5.75;;;;;;;5.29;49.82;98524.97;10246450;29;20047;-75
2021/04/24 01:53:38;;;;;;;10.82;5.28;;;;;;;5.22;49.71;98514.59;10246415;29;20514;-75
2021/04/24 01:58:58;;;;;;;9.77;5.13;;;;;;;5.19;49.93;98507.34;10232775;29;20050;-75
2021/04/24 02:04:20;;;;;;;9.20;5.55;;;;;;;5.12;50.29;98511.56;10245882;29;20044;-75
2021/04/24 02:09:43;;;;;;;7.53;4.68;;;;;;;5.07;50.63;98519.97;10246395;29;20442;-76
2021/04/24 02:15:05;;;;;;;8.48;4.95;;;;;;;5.03;50.17;98520.31;10231947;29;20451;-76
2021/04/24 02:20:26;;;;;;;8.95;4.78;;;;;;;4.98;50.55;98514.91;10245383;29;20043;-75
2021/04/24 02:25:47;;;;;;;9.07;4.80;;;;;;;4.99;49.93;98508.81;10244693;28;20056;-76
2021/04/24 02:31:07;;;;;;;9.75;4.57;;;;;;;4.99;50.95;98514.38;10231516;29;20058;-76
2021/04/24 02:36:28;;;;;;;9.57;4.60;;;;;;;4.97;50.80;98497.56;10231272;29;20387;-76
2021/04/24 02:41:48;;;;;;;6.63;4.50;;;;;;;4.96;51.06;98495.34;10244410;29;20050;-75
2021/04/24 02:47:08;;;;;;;11.27;4.63;;;;;;;4.95;50.99;98491.09;10243908;29;20070;-77
2021/04/24 02:52:29;;;;;;;8.27;4.22;;;;;;;4.92;50.64;98494.91;10230552;29;20475;-76
2021/04/24 02:57:49;;;;;;;7.38;4.72;;;;;;;4.91;51.13;98496.94;10256969;29;20047;-75
2021/04/24 03:03:12;;;;;;;11.40;5.43;;;;;;;4.86;51.16;98487.50;10243213;29;20478;-75
2021/04/24 03:08:32;;;;;;;12.05;5.47;;;;;;;4.82;50.90;98478.03;10230726;29;20384;-76
2021/04/24 03:13:53;;;;;;;8.45;5.50;;;;;;;4.79;51.36;98479.84;10256601;28;20137;-76
2021/04/24 03:19:14;;;;;;;7.43;4.65;;;;;;;4.73;51.27;98481.25;10256539;28;20368;-76
2021/04/24 03:24:34;;;;;;;10.45;5.30;;;;;;;4.68;51.53;98485.66;10242237;29;20055;-75
2021/04/24 03:29:54;;;;;;;10.65;5.72;;;;;;;4.65;51.59;98475.66;10256800;29;20047;-75
2021/04/24 03:35:15;;;;;;;11.85;5.13;;;;;;;4.58;51.93;98479.84;10242563;29;20055;-75
2021/04/24 03:40:35;;;;;;;11.43;4.88;;;;;;;4.56;51.82;98489.94;10228299;29;20043;-75
2021/04/24 03:45:57;;;;;;;9.45;5.10;;;;;;;4.55;52.38;98488.47;10242366;29;20102;-75
2021/04/24 03:51:17;;;;;;;7.78;5.30;;;;;;;4.56;52.15;98484.41;10230219;29;20058;-75
2021/04/24 03:56:38;;;;;;;9.70;4.82;;;;;;;4.48;51.84;98494.66;10244445;29;20414;-75
2021/04/24 04:01:59;;;;;;;12.65;4.88;;;;;;;4.42;52.35;98489.22;10229895;29;20094;-75
2021/04/24 04:07:19;;;;;;;11.30;5.60;;;;;;;4.49;52.41;98490.59;10229827;29;20431;-75
2021/04/24 04:12:43;;;;;;;9.57;5.80;;;;;;;4.62;52.24;98490.56;10229969;29;20099;-75
2021/04/24 04:18:10;;;;;;;9.80;5.60;;;;;;;4.72;52.66;98483.28;10226308;29;20475;-75
2021/04/24 04:23:31;;;;;;;11.85;5.32;;;;;;;4.82;52.28;98483.56;10205364;29;20063;-75
2021/04/24 04:28:52;;;;;;;10.73;6.55;;;;;;;4.93;52.54;98477.06;10228450;29;20047;-76
2021/04/24 04:34:13;;;;;;;14.02;7.68;;;;;;;5.05;52.38;98483.81;10227304;29;20046;-75
2021/04/24 04:39:34;;;;;;;14.45;7.70;;;;;;;5.23;52.43;98496.69;10237034;28;20039;-76
2021/04/24 04:44:54;;;;;;;15.77;8.57;;;;;;;5.54;52.72;98499.72;10208017;29;20046;-76
2021/04/24 04:50:20;;;;;;;17.90;9.60;;;;;;;5.85;52.51;98498.63;10217557;29;20120;-75
2021/04/24 04:55:41;;;;;;;18.95;11.73;;;;;;;6.15;52.58;98500.84;10200364;29;20052;-75
2021/04/24 05:01:03;;;;;;;20.42;11.88;;;;;;;6.65;52.55;98503.44;10233963;29;20042;-73
2021/04/24 05:06:25;;;;;;;15.95;9.90;;;;;;;7.05;51.92;98520.41;10195582;29;20043;-76
2021/04/24 05:11:46;;;;;;;15.50;8.18;;;;;;;7.64;51.41;98507.13;10224136;29;20541;-75
2021/04/24 05:17:06;;;;;;;15.98;7.63;;;;;;;8.75;50.99;98507.19;10223090;29;20051;-75
2021/04/24 05:22:27;;;;;;;11.20;7.43;;;;;;;11.41;50.64;98507.81;10231534;28;20517;-75
2021/04/24 05:27:48;;;;;;;11.95;8.52;;;;;;;18.54;48.97;98514.34;10213369;29;20040;-74
2021/04/24 05:33:08;;;;;;;11.55;7.57;;;;;;;24.06;39.19;98512.41;10219331;29;20047;-77
2021/04/24 05:38:29;;;;;;;10.75;7.70;;;;;;;28.88;28.67;98510.56;10206356;29;20090;-77
2021/04/24 05:43:54;;;;;;;9.02;5.10;;;;;;;32.35;20.47;98512.09;10232107;29;20043;-78
2021/04/24 05:49:14;;;;;;;7.88;4.10;;;;;;;34.57;15.32;98516.03;10204316;29;20066;-77
2021/04/24 05:54:34;;;;;;;5.83;3.73;;;;;;;35.85;13.00;98527.44;10222367;29;20039;-76
2021/04/24 05:59:55;;;;;;;6.93;3.78;;;;;;;37.32;10.26;98518.09;10208945;29;20058;-78
2021/04/24 06:05:16;;;;;;;6.22;4.10;;;;;;;37.84;9.03;98532.66;10205741;29;20044;-74
2021/04/24 06:10:36;;;;;;;5.95;3.90;;;;;;;39.37;8.50;98517.41;10192567;29;20043;-76
2021/04/24 06:15:57;;;;;;;6.45;3.47;;;;;;;41.42;7.07;98520.16;10218915;29;20113;-76
2021/04/24 06:21:17;;;;;;;4.93;3.20;;;;;;;43.28;5.92;98508.91;10218889;29;20055;-75
2021/04/24 06:26:37;;;;;;;4.93;3.22;;;;;;;43.65;5.38;98507.69;10205088;29;20044;-76
2021/04/24 06:31:58;;;;;;;7.70;3.28;;;;;;;45.85;4.43;98511.75;10204881;29;20542;-76
2021/04/24 06:37:18;;;;;;;5.78;3.30;;;;;;;46.22;3.93;98504.88;10204662;29;20451;-76
2021/04/24 06:42:40;;;;;;;6.57;3.67;;;;;;;45.35;4.25;98501.56;10191822;29;20040;-76
2021/04/24 06:48:01;;;;;;;4.13;3.30;;;;;;;46.53;3.75;98499.94;10217691;29;20051;-75
2021/04/24 06:53:22;;;;;;;4.80;2.90;;;;;;;48.16;3.01;98492.19;10178504;29;20070;-75
2021/04/24 06:58:42;;;;;;;9.93;3.10;;;;;;;47.24;3.08;98486.22;10218083;29;20043;-76
2021/04/24 07:04:03;;;;;;;4.50;2.92;;;;;;;46.42;3.47;98479.22;10216917;29;20407;-76
2021/04/24 07:09:23;;;;;;;7.05;3.17;;;;;;;46.56;3.24;98488.69;10203464;29;20094;-76
2021/04/24 07:14:43;;;;;;;5.90;3.15;;;;;;;46.58;3.44;98479.69;10189107;29;20050;-76
2021/04/24 07:20:05;;;;;;;5.65;3.15;;;;;;;46.43;3.51;98479.94;10202884;29;20044;-78
2021/04/24 07:25:28;;;;;;;5.95;2.83;;;;;;;47.97;2.90;98479.56;10195747;29;20062;-76
2021/04/24 07:30:48;;;;;;;6.32;3.03;;;;;;;46.78;2.84;98469.44;10213491;29;20036;-76
2021/04/24 07:36:09;;;;;;;5.65;2.95;;;;;;;45.35;3.29;98466.91;10189230;29;20408;-76
2021/04/24 07:41:30;;;;;;;6.65;3.10;;;;;;;43.83;4.19;98473.66;10217776;29;20471;-77
2021/04/24 07:46:52;;;;;;;6.03;3.35;;;;;;;42.49;4.96;98463.78;10216183;29;20479;-76
2021/04/24 07:52:14;;;;;;;6.43;3.30;;;;;;;42.21;5.22;98474.00;10202085;29;20168;-76
2021/04/24 07:57:35;;;;;;;9.93;4.45;;;;;;;38.27;5.60;98480.31;10201676;29;20044;-75
2021/04/24 08:02:55;;;;;;;10.68;5.28;;;;;;;31.75;8.52;98470.53;10188276;29;20052;-80
2021/04/24 08:08:15;;;;;;;;;;;;;;;26.82;12.91;98473.84;10201932;29;20055;-75
2021/04/24 08:13:36;;;;;;;13.60;5.50;;;;;;;25.36;13.19;98472.66;10214298;29;19923;-76
2021/04/24 08:18:57;;;;;;;12.23;5.95;;;;;;;24.34;15.00;98461.09;10188174;29;20044;-76
2021/04/24 08:24:17;;;;;;;10.00;5.80;;;;;;;23.28;16.05;98477.44;10200545;29;20064;-76
2021/04/24 08:29:37;;;;;;;9.93;5.35;;;;;;;22.59;17.29;98463.94;10200767;29;20054;-77
2021/04/24 08:34:58;;;;;;;11.52;5.90;;;;;;;24.93;18.07;98464.59;10200290;29;20047;-74
2021/04/24 08:40:20;;;;;;;9.85;4.05;;;;;;;31.04;12.87;98457.81;10200320;29;20043;-76
2021/04/24 08:45:42;;;;;;;;;;;;;;;26.88;14.08;98453.88;10200621;29;20047;-77
2021/04/24 08:51:02;;;;;;;9.67;5.00;;;;;;;24.04;15.33;98461.03;10206480;29;19922;-75
2021/04/24 08:56:25;;;;;;;10.18;4.60;;;;;;;24.08;16.30;98454.69;10230998;29;20611;-76
2021/04/24 09:01:45;;;;;;;7.30;4.10;;;;;;;27.95;16.10;98460.22;10218251;29;20102;-76
2021/04/24 09:07:06;;;;;;;9.52;3.97;;;;;;;27.77;13.98;98454.31;10228183;29;20047;-79
2021/04/24 09:12:39;;;;;;;9.15;4.22;;;;;;;24.64;15.26;98455.38;10212338;29;20056;-76
2021/04/24 09:18:07;;;;;;;9.05;4.80;;;;;;;24.45;16.70;98450.66;10199762;29;20411;-75
2021/04/24 09:23:33;;;;;;;8.43;4.10;;;;;;;28.89;14.07;98452.41;10186233;29;20058;-75
2021/04/24 09:29:01;;;;;;;8.73;4.03;;;;;;;30.14;12.90;98448.53;10234844;29;20066;-77
2021/04/24 09:34:21;;;;;;;8.02;3.97;;;;;;;32.53;11.49;98447.66;10221637;29;20039;-75
2021/04/24 09:39:50;;;;;;;9.20;3.97;;;;;;;31.98;11.56;98448.06;10193499;29;20052;-78
2021/04/24 09:45:40;;;;;;;9.00;3.53;;;;;;;36.80;9.56;98431.44;10195600;29;20064;-74
2021/04/24 09:51:15;;;;;;;9.80;4.35;;;;;;;32.86;10.11;98431.44;10223671;29;20051;-80
2021/04/24 09:56:36;;;;;;;9.57;3.75;;;;;;;28.84;11.19;98416.41;10233091;29;20047;-78
2021/04/24 10:02:07;;;;;;;7.07;4.05;;;;;;;26.10;12.89;98411.88;10233411;29;20046;-76
2021/04/24 10:07:41;;;;;;;8.83;3.63;;;;;;;27.66;13.80;98421.94;10194606;29;20503;-76
2021/04/24 10:13:04;;;;;;;6.65;3.40;;;;;;;36.07;9.72;98407.84;10193971;29;20127;-74
2021/04/24 10:18:24;;;;;;;6.90;3.38;;;;;;;33.66;9.15;98405.16;10205468;29;20099;-75
2021/04/24 10:23:45;;;;;;;10.00;4.20;;;;;;;28.66;11.59;98390.47;10202658;28;20499;-76
2021/04/24 10:29:07;;;;;;;7.78;3.53;;;;;;;26.64;13.36;98387.69;10244592;29;20039;-77
2021/04/24 10:34:27;;;;;;;7.22;3.97;;;;;;;31.19;12.25;98388.59;10214450;29;20506;-76
2021/04/24 10:39:47;;;;;;;7.20;3.25;;;;;;;29.45;12.39;98381.50;10191455;29;20055;-75
2021/04/24 10:45:08;;;;;;;8.83;3.37;;;;;;;29.38;12.48;98374.28;9337077;28;10001530;-77
2021/04/24 10:50:45;;;;;;;6.22;3.90;;;;;;;27.73;12.99;98373.25;9861901;29;10001356;-78
2021/04/24 10:56:06;;;;;;;6.20;3.70;;;;;;;26.92;13.80;98376.59;10231018;29;20491;-76
2021/04/24 11:01:26;;;;;;;8.52;3.65;;;;;;;25.61;14.08;98376.69;10203914;29;20455;-76
2021/04/24 11:07:18;;;;;;;4.93;3.42;;;;;;;25.75;15.42;98364.81;10203798;29;20047;-76
2021/04/24 11:12:44;;;;;;;10.10;3.97;;;;;;;25.91;14.67;98361.50;10224767;29;20051;-76
2021/04/24 11:18:08;;;;;;;6.32;4.07;;;;;;;25.94;15.25;98360.84;10199813;29;20051;-77
2021/04/24 11:23:44;;;;;;;7.43;4.25;;;;;;;26.02;14.94;98356.69;10203243;29;20440;-75
2021/04/24 11:29:09;;;;;;;9.00;3.80;;;;;;;25.68;14.82;98351.81;10214655;29;20060;-76
2021/04/24 11:34:39;;;;;;;8.75;4.28;;;;;;;25.13;15.32;98341.50;10202738;29;20044;-76
2021/04/24 11:40:27;;;;;;;9.30;4.20;;;;;;;25.22;15.73;98343.84;10200357;29;20054;-75
2021/04/24 11:46:04;;;;;;;6.82;3.70;;;;;;;24.78;15.63;98349.34;10211166;29;20051;-77
2021/04/24 11:51:55;;;;;;;6.85;3.92;;;;;;;24.55;16.19;98351.00;10199049;29;20059;-77
2021/04/24 11:57:19;;;;;;;6.93;3.90;;;;;;;24.73;16.29;98334.28;10214242;29;20051;-75
2021/04/24 12:02:45;;;;;;;8.98;4.05;;;;;;;24.76;16.16;98335.03;10214242;29;20043;-75
2021/04/24 12:08:05;;;;;;;5.90;3.83;;;;;;;24.35;16.33;98327.72;10201889;29;20476;-74
2021/04/24 12:13:26;;;;;;;9.88;4.68;;;;;;;23.48;16.80;98318.47;10201044;29;20103;-75
2021/04/24 12:18:47;;;;;;;6.13;4.07;;;;;;;22.72;17.43;98329.19;10200681;29;20055;-75
2021/04/24 12:24:08;;;;;;;10.95;4.40;;;;;;;22.45;17.69;98325.56;10214170;29;20427;-75
2021/04/24 12:29:49;;;;;;;9.43;4.90;;;;;;;22.20;18.09;98323.38;10214835;29;20503;-76
2021/04/24 12:35:19;;;;;;;11.68;4.70;;;;;;;21.15;18.70;98315.63;10187993;29;20424;-77
2021/04/24 12:40:47;;;;;;;9.38;4.28;;;;;;;20.36;19.55;98309.88;10213900;29;20044;-76
2021/04/24 12:46:10;;;;;;;9.18;4.38;;;;;;;20.55;19.66;98297.84;10237692;29;20043;-75
2021/04/24 12:51:30;;;;;;;6.30;3.70;;;;;;;20.82;19.74;98305.22;10239506;29;20098;-75
2021/04/24 12:56:51;;;;;;;6.57;4.22;;;;;;;21.36;19.64;98295.09;10226489;29;20039;-75
2021/04/24 13:02:11;;;;;;;9.25;3.55;;;;;;;22.12;19.43;98289.03;10199907;29;20440;-74
2021/04/24 13:07:33;;;;;;;7.95;4.88;;;;;;;22.04;19.17;98285.91;10213747;29;20052;-75
2021/04/24 13:12:59;;;;;;;8.00;4.28;;;;;;;21.63;19.48;98282.50;10222134;29;20051;-75
2021/04/24 13:18:29;;;;;;;10.25;3.85;;;;;;;21.68;19.29;98278.38;10238910;29;20102;-75
2021/04/24 13:24:08;;;;;;;6.78;3.70;;;;;;;21.11;19.91;98284.25;10233847;28;20102;-75
2021/04/24 13:29:42;;;;;;;6.80;3.80;;;;;;;20.84;19.76;98265.56;10238658;29;20044;-75
2021/04/24 13:35:03;;;;;;;7.93;3.97;;;;;;;20.71;20.05;98258.75;10229994;29;20050;-74
2021/04/24 13:40:25;;;;;;;7.85;4.53;;;;;;;20.16;20.23;98256.69;10220150;29;20048;-74
2021/04/24 13:45:45;;;;;;;6.53;4.22;;;;;;;19.77;20.42;98265.09;10234966;29;20054;-73
2021/04/24 13:51:06;;;;;;;7.00;4.22;;;;;;;19.50;21.33;98247.03;10193066;29;20039;-75
2021/04/24 13:56:26;;;;;;;8.73;4.88;;;;;;;19.38;21.46;98238.75;10194188;29;20051;-73
2021/04/24 14:01:47;;;;;;;10.05;4.65;;;;;;;19.28;21.54;98241.16;10234584;29;20071;-75
2021/04/24 14:07:08;;;;;;;6.88;4.22;;;;;;;19.19;21.58;98236.53;10245141;29;20043;-74
2021/04/24 14:12:28;;;;;;;7.47;4.57;;;;;;;19.36;21.61;98243.59;10224468;29;20064;-74
2021/04/24 14:17:49;;;;;;;9.40;5.10;;;;;;;19.23;21.56;98236.00;10192385;29;20052;-72
2021/04/24 14:23:10;;;;;;;9.32;4.82;;;;;;;18.79;22.17;98238.38;10229772;28;20055;-79
2021/04/24 14:28:30;;;;;;;7.80;4.63;;;;;;;18.36;22.37;98228.03;10242789;29;20403;-76
2021/04/24 14:33:52;;;;;;;11.20;5.13;;;;;;;18.14;23.20;98230.56;10244148;29;20063;-73
2021/04/24 14:39:14;;;;;;;11.07;5.90;;;;;;;17.95;23.48;98220.53;10234559;29;20043;-77
2021/04/24 14:44:35;;;;;;;9.10;5.47;;;;;;;17.88;23.77;98215.25;10206003;29;20411;-79
2021/04/24 14:49:56;;;;;;;6.32;4.57;;;;;;;17.65;23.79;98205.69;10197840;29;20044;-77
2021/04/24 14:55:17;;;;;;;7.75;4.32;;;;;;;17.78;23.79;98207.03;10199972;29;20039;-76
2021/04/24 15:00:38;;;;;;;7.60;4.20;;;;;;;17.74;24.12;98207.56;10240694;28;20133;-80
2021/04/24 15:05:59;;;;;;;8.40;4.78;;;;;;;17.47;24.49;98202.03;10243159;29;20043;-76
2021/04/24 15:11:20;;;;;;;8.50;4.75;;;;;;;16.91;24.51;98199.97;10218542;29;20396;-75
2021/04/24 15:16:40;;;;;;;8.57;4.95;;;;;;;16.53;25.41;98210.72;10197682;29;20043;-77
2021/04/24 15:22:02;;;;;;;10.48;5.10;;;;;;;16.39;25.68;98216.34;10203403;29;20064;-75
2021/04/24 15:27:24;;;;;;;11.13;4.78;;;;;;;16.20;26.03;98211.84;10203283;29;20114;-75
2021/04/24 15:32:44;;;;;;;10.27;5.28;;;;;;;16.06;26.38;98207.56;10189192;29;20044;-75
2021/04/24 15:38:07;;;;;;;9.80;4.50;;;;;;;15.81;26.54;98211.84;10216062;29;20055;-75
2021/04/24 15:43:28;;;;;;;11.50;5.50;;;;;;;15.66;27.11;98207.56;10202350;29;20048;-74
2021/04/24 15:48:48;;;;;;;10.75;5.47;;;;;;;15.28;27.01;98202.56;10189388;29;20039;-75
2021/04/24 15:54:09;;;;;;;12.45;5.88;;;;;;;15.16;27.58;98202.63;10202217;29;20051;-75
2021/04/24 15:59:34;;;;;;;10.80;6.18;;;;;;;15.15;27.69;98201.88;10189524;29;20134;-76
2021/04/24 16:04:55;;;;;;;8.83;5.20;;;;;;;14.89;28.05;98186.31;10188943;29;20106;-75
2021/04/24 16:10:16;;;;;;;11.63;5.38;;;;;;;14.85;28.05;98188.88;10201690;29;20279;-75
2021/04/24 16:15:36;;;;;;;11.98;5.18;;;;;;;14.80;28.37;98195.63;10201666;29;20058;-75
2021/04/24 16:20:56;;;;;;;10.63;5.40;;;;;;;14.70;28.72;98192.22;10175156;29;20047;-76
2021/04/24 16:26:17;;;;;;;7.57;5.03;;;;;;;14.55;29.33;98193.47;10202862;29;20051;-76
2021/04/24 16:31:38;;;;;;;10.68;4.85;;;;;;;14.45;28.93;98196.41;10202399;29;20048;-76
2021/04/24 16:36:59;;;;;;;11.98;6.32;;;;;;;14.31;29.30;98196.28;10201976;29;20051;-76
2021/04/24 16:42:20;;;;;;;12.38;5.30;;;;;;;14.14;29.38;98198.69;10188901;29;20472;-76
2021/04/24 16:47:45;;;;;;;14.13;8.60;;;;;;;13.86;31.04;98201.22;10188853;29;20047;-76
2021/04/24 16:53:05;;;;;;;11.48;5.35;;;;;;;13.67;30.95;98204.25;10201868;29;20047;-75
2021/04/24 16:58:25;;;;;;;8.27;4.90;;;;;;;13.51;31.33;98215.19;10202765;29;20377;-78
2021/04/24 17:03:46;;;;;;;11.23;5.53;;;;;;;13.49;31.50;98214.31;10202140;29;20043;-76
2021/04/24 17:09:07;;;;;;;8.82;4.72;;;;;;;13.42;31.40;98211.13;10189202;29;20050;-78
2021/04/24 17:14:32;;;;;;;9.15;5.10;;;;;;;13.18;31.56;98207.47;10202940;29;20380;-77
2021/04/24 17:19:53;;;;;;;10.10;5.78;;;;;;;12.94;31.85;98211.50;10188072;29;20051;-77
2021/04/24 17:25:14;;;;;;;10.63;6.15;;;;;;;12.73;32.49;98212.22;10187445;29;20074;-79
2021/04/24 17:30:35;;;;;;;10.27;5.88;;;;;;;12.56;32.81;98215.28;10213994;29;20044;-75
2021/04/24 17:35:59;;;;;;;8.70;5.90;;;;;;;12.38;33.71;98222.44;10213867;29;20415;-75
2021/04/24 17:41:20;;;;;;;12.55;6.05;;;;;;;12.01;33.72;98220.66;10187428;29;20403;-75
2021/04/24 17:46:41;;;;;;;10.18;6.07;;;;;;;11.80;33.53;98240.16;10200518;29;20039;-76
2021/04/24 17:52:02;;;;;;;10.27;5.65;;;;;;;11.60;34.58;98242.25;10200417;29;20399;-76
2021/04/24 17:57:24;;;;;;;8.98;5.82;;;;;;;11.29;34.65;98255.34;10202163;29;20055;-76
2021/04/24 18:02:45;;;;;;;11.40;6.30;;;;;;;11.06;35.51;98259.31;10207856;29;20039;-76
2021/04/24 18:08:05;;;;;;;8.27;5.90;;;;;;;10.85;35.76;98256.34;10221419;29;20395;-76
2021/04/24 18:13:26;;;;;;;12.25;6.20;;;;;;;10.63;36.21;98268.63;10221237;29;20040;-75
2021/04/24 18:18:47;;;;;;;11.35;5.97;;;;;;;10.42;37.57;98269.88;10206586;29;20048;-74
2021/04/24 18:24:09;;;;;;;14.00;6.57;;;;;;;10.23;37.47;98270.53;10192287;29;20696;-74
2021/04/24 18:29:30;;;;;;;11.45;6.40;;;;;;;10.00;38.20;98270.84;10205333;29;20051;-75
2021/04/24 18:34:52;;;;;;;11.73;6.07;;;;;;;9.85;38.13;98275.91;10205083;29;20052;-75
2021/04/24 18:40:14;;;;;;;10.63;4.97;;;;;;;9.76;38.18;98280.09;10205176;29;20052;-75
2021/04/24 18:45:34;;;;;;;9.20;4.72;;;;;;;9.59;39.30;98289.22;10192285;29;20051;-75
2021/04/24 18:50:54;;;;;;;9.50;5.70;;;;;;;9.52;38.90;98297.66;10191297;29;20051;-75
2021/04/24 18:56:15;;;;;;;10.30;5.28;;;;;;;9.39;39.59;98299.47;10204823;29;20050;-75
2021/04/24 19:01:36;;;;;;;9.02;4.65;;;;;;;9.37;39.20;98307.66;10191013;29;20047;-75
2021/04/24 19:06:57;;;;;;;10.32;5.65;;;;;;;9.24;40.71;98307.25;10203742;29;20046;-76
2021/04/24 19:12:18;;;;;;;10.95;5.22;;;;;;;9.17;40.03;98303.25;10202949;29;20511;-75
2021/04/24 19:17:38;;;;;;;10.48;5.65;;;;;;;9.09;40.56;98311.66;10203359;29;20054;-75
2021/04/24 19:23:00;;;;;;;10.23;5.18;;;;;;;9.04;40.62;98309.09;10203565;29;20079;-76
2021/04/24 19:28:21;;;;;;;8.23;5.22;;;;;;;8.90;41.01;98308.69;10190809;29;20052;-77
2021/04/24 19:33:41;;;;;;;8.63;4.93;;;;;;;8.91;40.94;98318.50;10217329;29;20091;-80
2021/04/24 19:39:03;;;;;;;9.95;5.55;;;;;;;8.92;41.35;98308.13;10204434;29;20043;-80
2021/04/24 19:44:24;;;;;;;9.82;5.03;;;;;;;8.93;41.13;98320.72;10204680;29;20044;-80
2021/04/24 19:49:49;;;;;;;10.45;5.07;;;;;;;8.89;41.13;98321.88;10204731;29;20481;-79
2021/04/24 19:55:11;;;;;;;15.05;5.72;;;;;;;8.87;41.05;98307.75;10192679;29;20471;-79
2021/04/24 20:00:33;;;;;;;9.52;5.35;;;;;;;8.89;41.15;98316.31;10204633;29;20047;-80
2021/04/24 20:05:54;;;;;;;9.18;5.38;;;;;;;8.88;41.15;98317.63;10190987;29;20040;-79
2021/04/24 20:11:14;;;;;;;7.68;4.63;;;;;;;8.85;41.18;98315.22;10203500;29;20081;-79
2021/04/24 20:16:35;;;;;;;7.03;4.32;;;;;;;8.79;41.14;98318.25;10204373;29;20047;-79
2021/04/24 20:21:56;;;;;;;9.65;4.25;;;;;;;8.75;40.98;98303.97;10217060;29;20067;-79
2021/04/24 20:27:17;;;;;;;12.27;4.53;;;;;;;8.79;41.53;98300.81;10203422;29;20048;-79
2021/04/24 20:32:38;;;;;;;9.70;4.60;;;;;;;8.76;41.53;98308.22;10203844;29;20051;-79
2021/04/24 20:37:58;;;;;;;8.57;4.80;;;;;;;8.72;41.58;98319.03;10190177;29;20059;-79
2021/04/24 20:43:19;;;;;;;8.73;4.25;;;;;;;8.65;41.47;98310.75;10216810;29;20044;-78
2021/04/24 20:48:40;;;;;;;11.57;4.57;;;;;;;8.61;41.27;98313.94;10202457;29;20429;-79
2021/04/24 20:54:01;;;;;;;12.82;4.78;;;;;;;8.57;41.64;98311.53;10204494;29;20476;-79
2021/04/24 20:59:21;;;;;;;8.80;4.65;;;;;;;8.51;41.71;98313.09;10215298;29;20044;-79
2021/04/24 21:04:42;;;;;;;8.60;4.10;;;;;;;8.42;41.37;98319.28;10203014;29;20051;-80
2021/04/24 21:10:03;;;;;;;7.90;4.20;;;;;;;8.36;42.29;98310.41;10201775;29;20051;-79
2021/04/24 21:15:24;;;;;;;8.32;4.22;;;;;;;8.37;42.01;98317.44;10188322;29;20051;-79
2021/04/24 21:20:44;;;;;;;12.75;5.00;;;;;;;8.31;42.00;98315.59;10202601;29;20044;-79
2021/04/24 21:26:05;;;;;;;10.80;4.95;;;;;;;8.24;42.19;98310.81;10214185;29;20060;-79
2021/04/24 21:31:25;;;;;;;9.82;4.82;;;;;;;8.22;42.40;98307.88;10202763;29;20535;-79
2021/04/24 21:36:45;;;;;;;12.98;4.90;;;;;;;8.25;42.47;98309.50;10209257;29;20050;-79
2021/04/24 21:42:06;;;;;;;10.32;4.95;;;;;;;8.26;42.55;98313.03;10196686;29;20043;-79
2021/04/24 21:47:26;;;;;;;11.43;5.40;;;;;;;8.22;42.56;98309.91;10196024;29;20050;-79
2021/04/24 21:52:47;;;;;;;10.52;5.68;;;;;;;8.26;42.69;98301.91;10221891;29;20044;-79
2021/04/24 21:58:07;;;;;;;13.30;6.63;;;;;;;8.26;42.63;98296.34;10207899;29;20059;-79
2021/04/24 22:03:31;;;;;;;10.50;5.03;;;;;;;8.22;42.73;98301.56;10208148;29;20048;-79
2021/04/24 22:08:53;;;;;;;8.65;5.25;;;;;;;8.19;43.06;98297.84;10195356;29;20052;-79
2021/04/24 22:14:13;;;;;;;10.32;5.10;;;;;;;8.20;43.13;98301.38;10207363;29;20047;-79
2021/04/24 22:19:34;;;;;;;9.32;5.00;;;;;;;8.26;42.78;98291.50;10194731;29;20115;-79
2021/04/24 22:24:54;;;;;;;8.70;4.70;;;;;;;8.30;43.16;98291.88;10207425;29;20055;-79
2021/04/24 22:30:15;;;;;;;8.40;4.88;;;;;;;8.33;43.07;98285.16;10194160;29;20056;-78
2021/04/24 22:35:36;;;;;;;9.40;4.97;;;;;;;8.32;42.99;98283.69;10194029;29;20047;-79
2021/04/24 22:40:56;;;;;;;9.90;4.85;;;;;;;8.31;43.24;98292.63;10193178;29;20035;-79
2021/04/24 22:46:17;;;;;;;10.88;4.95;;;;;;;8.30;42.95;98289.09;10205965;29;20091;-79
2021/04/24 22:51:38;;;;;;;8.77;4.88;;;;;;;8.32;43.32;98286.47;10207058;29;20054;-79
2021/04/24 22:56:58;;;;;;;12.25;4.93;;;;;;;8.40;43.46;98283.69;10206868;29;20051;-79
2021/04/24 23:02:19;;;;;;;11.48;5.32;;;;;;;8.45;43.42;98295.88;10289325;23;20050;-79
2021/04/24 23:07:41;;;;;;;10.10;4.95;;;;;;;8.52;43.05;98292.31;10419678;28;20042;-79
2021/04/24 23:13:01;;;;;;;10.30;5.15;;;;;;;8.51;43.19;98290.81;10433606;28;20049;-79
2021/04/24 23:18:22;;;;;;;8.85;5.20;;;;;;;8.52;43.09;98292.31;10420543;28;20056;-79
2021/04/24 23:23:42;;;;;;;11.40;5.55;;;;;;;8.51;43.61;98291.56;10420387;28;20044;-80
2021/04/24 23:29:03;;;;;;;9.80;5.13;;;;;;;8.56;43.52;98284.28;10419868;28;20045;-79
2021/04/24 23:34:23;;;;;;;10.82;5.63;;;;;;;8.57;43.45;98291.31;10419080;28;20038;-79
2021/04/24 23:39:45;;;;;;;10.48;5.20;;;;;;;8.54;43.60;98281.34;10418511;28;20050;-79
2021/04/24 23:45:13;;;;;;;11.13;6.47;;;;;;;8.51;43.52;98283.22;10419506;28;20041;-80
2021/04/24 23:50:34;;;;;;;10.65;5.60;;;;;;;8.51;43.53;98282.47;10406218;28;20045;-80
2021/04/24 23:55:55;;;;;;;8.35;4.75;;;;;;;8.47;43.71;98282.84;10417312;28;20042;-79
